Etusivu
METAR-TAF:

METAR-TAF

Lentoasemat :

Black River Falls, Wisconsin, Yhdysvallat

Leveyspiiri: 44-15-03N, Pituuspiiri: 090-51-19W, korkeus merenpinnasta: 255 m

Tämänhetkinen sää

Tämä raportti tehtiin 26 minuuttia sitten, kello 10.55 UTC
tyyntä
Lämpötila -10°C
Kosteus 85%
Ilmanpaine 1015 hPa
Näkyvyys: 16.1 km
selkeää

METAR: KBCK 241055Z AUTO 00000KT 10SM CLR M10/M12 A2996 RMK AO2 T11051116

Aika: 05:21 (11:21 UTC)


TAF: puuttuu

Säähavainnot ja -ennusteet yli 4000 lentoasemalta (METAR- ja TAF-raportit).

Käytössä olevat sääasemat on merkitty karttaan keltaisilla ja punaisilla pisteillä.

Aseta hiiri pisteen päälle nähdäksesi sääaseman nimen.

Klikkaa sitten nähdäksesi säähavainnot ja -ennusteet.

Kartan vaihtaminen: klikkaa mustalla rastilla varustettuja vihreitä pisteitä, niin voit zoomata sisään; viivalla varustettua vihreää pistettä, niin voit zoomata ulos tai vihreitä nuolia, niin pääset viereisille kartoille.


METAR-TAF: